createdAt,value
2018-09-18T00:00:53.417Z,16.85
2018-09-18T00:10:53.452Z,19.57
2018-09-18T00:20:53.496Z,20.92
2018-09-18T00:30:53.493Z,21.49
2018-09-18T00:40:53.506Z,21.70
2018-09-18T00:50:53.527Z,21.81
2018-09-18T01:00:53.509Z,21.59
2018-09-18T01:10:54.413Z,21.58
2018-09-18T01:20:53.495Z,21.34
2018-09-18T01:30:53.441Z,21.10
2018-09-18T01:40:53.464Z,21.12
2018-09-18T01:50:53.601Z,20.30
2018-09-18T02:00:53.470Z,19.29
2018-09-18T02:10:54.513Z,18.47
2018-09-18T02:20:53.508Z,17.78
2018-09-18T02:30:53.495Z,17.02
2018-09-18T02:40:53.460Z,16.84
2018-09-18T02:50:53.582Z,16.69
2018-09-18T03:00:53.498Z,18.64
2018-09-18T03:10:53.514Z,20.75
2018-09-18T03:20:53.539Z,21.41
2018-09-18T03:30:53.466Z,21.60
2018-09-18T03:40:53.522Z,21.57
2018-09-18T03:50:53.744Z,21.38
2018-09-18T04:00:53.515Z,21.42
2018-09-18T04:10:53.523Z,21.28
2018-09-18T04:20:53.488Z,21.40
2018-09-18T04:30:53.555Z,21.32
2018-09-18T04:40:53.680Z,21.18
2018-09-18T04:50:53.529Z,21.32
2018-09-18T05:00:53.490Z,21.39
2018-09-18T05:10:53.550Z,21.51
2018-09-18T05:20:53.573Z,21.67
2018-09-18T05:30:53.564Z,21.91
2018-09-18T05:40:53.549Z,22.85
2018-09-18T05:50:53.641Z,23.46
2018-09-18T06:00:53.619Z,24.07
2018-09-18T06:10:53.517Z,24.61
2018-09-18T06:20:53.596Z,24.95
2018-09-18T06:30:53.498Z,25.55
2018-09-18T06:40:53.569Z,26.43
2018-09-18T06:50:53.649Z,26.49
2018-09-18T07:00:53.692Z,26.56
2018-09-18T07:10:53.649Z,26.83
2018-09-18T07:20:53.550Z,27.03
2018-09-18T07:30:53.618Z,27.07
2018-09-18T07:40:53.539Z,27.37
2018-09-18T07:50:53.541Z,27.67
2018-09-18T08:00:53.639Z,28.04
2018-09-18T08:10:54.146Z,27.97
2018-09-18T08:20:53.599Z,28.21
2018-09-18T08:30:54.266Z,28.36
2018-09-18T08:40:53.704Z,28.35
2018-09-18T08:50:53.731Z,29.36
2018-09-18T09:00:53.577Z,29.68
2018-09-18T09:10:59.643Z,29.73
2018-09-18T09:20:53.677Z,30.13
2018-09-18T09:30:53.657Z,28.75
2018-09-18T09:40:54.278Z,29.43
2018-09-18T09:50:53.653Z,29.57
2018-09-18T10:21:20.769Z,29.75
2018-09-18T10:31:20.833Z,30.44
2018-09-18T10:41:20.961Z,30.08
2018-09-18T10:51:20.815Z,30.36
2018-09-18T11:01:20.768Z,30.48
2018-09-18T11:11:20.841Z,31.48
2018-09-18T11:21:20.877Z,31.49
2018-09-18T11:31:20.933Z,31.02
